sensor_id;sensor_type;location;lat;lon;timestamp;P1;durP1;ratioP1;P2;durP2;ratioP2
73089;SDS011;61269;49.450;8.610;2023-04-15T00:00:27;6.60;;;2.33;;
73089;SDS011;61269;49.450;8.610;2023-04-15T00:03:13;5.47;;;1.90;;
73089;SDS011;61269;49.450;8.610;2023-04-15T00:05:41;4.78;;;1.70;;
73089;SDS011;61269;49.450;8.610;2023-04-15T00:08:11;5.82;;;2.13;;
73089;SDS011;61269;49.450;8.610;2023-04-15T00:10:39;5.75;;;2.30;;
73089;SDS011;61269;49.450;8.610;2023-04-15T00:13:10;6.43;;;2.33;;
73089;SDS011;61269;49.450;8.610;2023-04-15T00:15:38;6.10;;;1.70;;
73089;SDS011;61269;49.450;8.610;2023-04-15T00:18:06;4.93;;;1.80;;
73089;SDS011;61269;49.450;8.610;2023-04-15T00:20:34;4.18;;;1.88;;
73089;SDS011;61269;49.450;8.610;2023-04-15T00:23:04;5.50;;;2.28;;
73089;SDS011;61269;49.450;8.610;2023-04-15T00:25:33;4.95;;;2.00;;
73089;SDS011;61269;49.450;8.610;2023-04-15T00:28:01;5.73;;;2.33;;
73089;SDS011;61269;49.450;8.610;2023-04-15T00:30:29;6.03;;;2.40;;
73089;SDS011;61269;49.450;8.610;2023-04-15T00:32:58;6.63;;;2.78;;
73089;SDS011;61269;49.450;8.610;2023-04-15T00:35:27;7.68;;;2.92;;
73089;SDS011;61269;49.450;8.610;2023-04-15T00:37:58;7.38;;;3.17;;
73089;SDS011;61269;49.450;8.610;2023-04-15T00:40:26;6.03;;;2.10;;
73089;SDS011;61269;49.450;8.610;2023-04-15T00:42:56;5.82;;;2.88;;
73089;SDS011;61269;49.450;8.610;2023-04-15T00:45:24;6.43;;;2.85;;
73089;SDS011;61269;49.450;8.610;2023-04-15T00:47:54;5.70;;;2.60;;
73089;SDS011;61269;49.450;8.610;2023-04-15T00:50:22;4.72;;;2.05;;
73089;SDS011;61269;49.450;8.610;2023-04-15T00:52:51;3.97;;;1.70;;
73089;SDS011;61269;49.450;8.610;2023-04-15T00:55:19;4.53;;;1.60;;
73089;SDS011;61269;49.450;8.610;2023-04-15T00:57:47;4.90;;;2.05;;
73089;SDS011;61269;49.450;8.610;2023-04-15T01:00:17;4.72;;;1.80;;
73089;SDS011;61269;49.450;8.610;2023-04-15T01:02:46;3.55;;;1.77;;
73089;SDS011;61269;49.450;8.610;2023-04-15T01:05:14;4.53;;;1.90;;
73089;SDS011;61269;49.450;8.610;2023-04-15T01:07:45;4.88;;;1.83;;
73089;SDS011;61269;49.450;8.610;2023-04-15T01:10:13;4.07;;;2.03;;
73089;SDS011;61269;49.450;8.610;2023-04-15T01:12:42;5.13;;;2.22;;
73089;SDS011;61269;49.450;8.610;2023-04-15T01:15:10;6.60;;;2.15;;
73089;SDS011;61269;49.450;8.610;2023-04-15T01:17:40;4.77;;;2.00;;
73089;SDS011;61269;49.450;8.610;2023-04-15T01:20:09;4.25;;;1.88;;
73089;SDS011;61269;49.450;8.610;2023-04-15T01:22:38;5.57;;;2.15;;
73089;SDS011;61269;49.450;8.610;2023-04-15T01:25:08;5.78;;;2.03;;
73089;SDS011;61269;49.450;8.610;2023-04-15T01:27:40;5.78;;;2.15;;
73089;SDS011;61269;49.450;8.610;2023-04-15T01:30:09;5.00;;;1.70;;
73089;SDS011;61269;49.450;8.610;2023-04-15T01:32:38;4.93;;;1.70;;
73089;SDS011;61269;49.450;8.610;2023-04-15T01:35:24;4.38;;;2.20;;
73089;SDS011;61269;49.450;8.610;2023-04-15T01:37:53;4.28;;;1.75;;
73089;SDS011;61269;49.450;8.610;2023-04-15T01:40:21;8.45;;;1.70;;
73089;SDS011;61269;49.450;8.610;2023-04-15T01:42:51;3.97;;;1.90;;
73089;SDS011;61269;49.450;8.610;2023-04-15T01:45:19;3.72;;;1.42;;
73089;SDS011;61269;49.450;8.610;2023-04-15T01:47:47;3.88;;;1.65;;
73089;SDS011;61269;49.450;8.610;2023-04-15T01:50:16;2.78;;;1.45;;
73089;SDS011;61269;49.450;8.610;2023-04-15T01:52:44;3.58;;;1.52;;
73089;SDS011;61269;49.450;8.610;2023-04-15T01:55:13;5.00;;;2.00;;
73089;SDS011;61269;49.450;8.610;2023-04-15T01:57:41;3.53;;;1.52;;
73089;SDS011;61269;49.450;8.610;2023-04-15T02:00:11;7.60;;;1.83;;
73089;SDS011;61269;49.450;8.610;2023-04-15T02:02:41;5.57;;;2.30;;
73089;SDS011;61269;49.450;8.610;2023-04-15T02:05:09;7.15;;;2.30;;
73089;SDS011;61269;49.450;8.610;2023-04-15T02:07:37;4.03;;;1.97;;
73089;SDS011;61269;49.450;8.610;2023-04-15T02:10:07;6.20;;;1.90;;
73089;SDS011;61269;49.450;8.610;2023-04-15T02:12:36;4.90;;;1.90;;
73089;SDS011;61269;49.450;8.610;2023-04-15T02:15:05;5.05;;;1.98;;
73089;SDS011;61269;49.450;8.610;2023-04-15T02:17:36;5.25;;;2.28;;
73089;SDS011;61269;49.450;8.610;2023-04-15T02:20:04;4.97;;;2.50;;
73089;SDS011;61269;49.450;8.610;2023-04-15T02:22:34;6.05;;;2.35;;
73089;SDS011;61269;49.450;8.610;2023-04-15T02:25:02;4.50;;;2.15;;
73089;SDS011;61269;49.450;8.610;2023-04-15T02:27:31;9.02;;;2.35;;
73089;SDS011;61269;49.450;8.610;2023-04-15T02:29:59;5.40;;;2.53;;
73089;SDS011;61269;49.450;8.610;2023-04-15T02:32:27;4.30;;;1.93;;
73089;SDS011;61269;49.450;8.610;2023-04-15T02:34:58;6.18;;;2.05;;
73089;SDS011;61269;49.450;8.610;2023-04-15T02:37:29;5.25;;;2.53;;
73089;SDS011;61269;49.450;8.610;2023-04-15T02:39:59;5.60;;;2.33;;
73089;SDS011;61269;49.450;8.610;2023-04-15T02:42:27;5.57;;;2.15;;
73089;SDS011;61269;49.450;8.610;2023-04-15T02:44:59;4.60;;;2.13;;
73089;SDS011;61269;49.450;8.610;2023-04-15T02:47:31;8.27;;;2.60;;
73089;SDS011;61269;49.450;8.610;2023-04-15T02:50:01;7.85;;;2.70;;
73089;SDS011;61269;49.450;8.610;2023-04-15T02:52:30;3.72;;;1.80;;
73089;SDS011;61269;49.450;8.610;2023-04-15T02:54:58;4.13;;;1.55;;
73089;SDS011;61269;49.450;8.610;2023-04-15T02:57:29;5.30;;;1.70;;
73089;SDS011;61269;49.450;8.610;2023-04-15T03:00:03;3.25;;;1.80;;
73089;SDS011;61269;49.450;8.610;2023-04-15T03:02:37;4.25;;;1.63;;
73089;SDS011;61269;49.450;8.610;2023-04-15T03:05:10;3.38;;;1.55;;
73089;SDS011;61269;49.450;8.610;2023-04-15T03:07:42;3.45;;;1.80;;
73089;SDS011;61269;49.450;8.610;2023-04-15T03:10:10;3.53;;;1.70;;
73089;SDS011;61269;49.450;8.610;2023-04-15T03:12:39;4.07;;;1.90;;
73089;SDS011;61269;49.450;8.610;2023-04-15T03:15:10;4.03;;;2.10;;
73089;SDS011;61269;49.450;8.610;2023-04-15T03:17:43;7.78;;;2.63;;
73089;SDS011;61269;49.450;8.610;2023-04-15T03:20:13;4.55;;;2.20;;
73089;SDS011;61269;49.450;8.610;2023-04-15T03:22:41;3.40;;;1.67;;
73089;SDS011;61269;49.450;8.610;2023-04-15T03:25:10;3.08;;;1.70;;
73089;SDS011;61269;49.450;8.610;2023-04-15T03:27:38;3.83;;;1.90;;
73089;SDS011;61269;49.450;8.610;2023-04-15T03:30:07;3.17;;;1.42;;
73089;SDS011;61269;49.450;8.610;2023-04-15T03:32:37;4.53;;;1.75;;
73089;SDS011;61269;49.450;8.610;2023-04-15T03:35:06;3.73;;;1.87;;
73089;SDS011;61269;49.450;8.610;2023-04-15T03:37:37;3.55;;;1.80;;
73089;SDS011;61269;49.450;8.610;2023-04-15T03:40:05;4.13;;;1.48;;
73089;SDS011;61269;49.450;8.610;2023-04-15T03:42:35;3.53;;;1.42;;
73089;SDS011;61269;49.450;8.610;2023-04-15T03:45:04;4.07;;;1.45;;
73089;SDS011;61269;49.450;8.610;2023-04-15T03:47:33;2.47;;;1.30;;
73089;SDS011;61269;49.450;8.610;2023-04-15T03:50:01;3.38;;;1.52;;
73089;SDS011;61269;49.450;8.610;2023-04-15T03:52:30;2.92;;;1.67;;
73089;SDS011;61269;49.450;8.610;2023-04-15T03:54:59;4.38;;;1.67;;
73089;SDS011;61269;49.450;8.610;2023-04-15T03:57:28;3.47;;;1.88;;
73089;SDS011;61269;49.450;8.610;2023-04-15T03:59:57;3.03;;;1.70;;
73089;SDS011;61269;49.450;8.610;2023-04-15T04:02:25;2.97;;;1.52;;
73089;SDS011;61269;49.450;8.610;2023-04-15T04:04:54;3.40;;;1.85;;
73089;SDS011;61269;49.450;8.610;2023-04-15T04:07:22;3.00;;;1.73;;
73089;SDS011;61269;49.450;8.610;2023-04-15T04:09:51;3.97;;;1.95;;
73089;SDS011;61269;49.450;8.610;2023-04-15T04:12:20;3.93;;;2.00;;
73089;SDS011;61269;49.450;8.610;2023-04-15T04:14:48;3.58;;;1.50;;
73089;SDS011;61269;49.450;8.610;2023-04-15T04:17:17;4.10;;;1.45;;
73089;SDS011;61269;49.450;8.610;2023-04-15T04:19:45;4.72;;;1.50;;
73089;SDS011;61269;49.450;8.610;2023-04-15T04:22:13;2.40;;;1.25;;
73089;SDS011;61269;49.450;8.610;2023-04-15T04:24:41;3.03;;;1.23;;
73089;SDS011;61269;49.450;8.610;2023-04-15T04:27:09;2.95;;;1.65;;
73089;SDS011;61269;49.450;8.610;2023-04-15T04:29:39;3.75;;;1.60;;
73089;SDS011;61269;49.450;8.610;2023-04-15T04:32:07;5.07;;;1.63;;
73089;SDS011;61269;49.450;8.610;2023-04-15T04:34:35;4.20;;;1.83;;
73089;SDS011;61269;49.450;8.610;2023-04-15T04:37:04;3.20;;;1.47;;
73089;SDS011;61269;49.450;8.610;2023-04-15T04:39:32;4.10;;;2.03;;
73089;SDS011;61269;49.450;8.610;2023-04-15T04:42:00;3.17;;;2.05;;
73089;SDS011;61269;49.450;8.610;2023-04-15T04:44:28;4.60;;;1.40;;
73089;SDS011;61269;49.450;8.610;2023-04-15T04:46:58;4.35;;;2.03;;
73089;SDS011;61269;49.450;8.610;2023-04-15T04:49:26;3.93;;;1.63;;
73089;SDS011;61269;49.450;8.610;2023-04-15T04:51:54;4.65;;;1.75;;
73089;SDS011;61269;49.450;8.610;2023-04-15T04:54:22;4.28;;;2.03;;
73089;SDS011;61269;49.450;8.610;2023-04-15T04:56:51;3.60;;;2.03;;
73089;SDS011;61269;49.450;8.610;2023-04-15T04:59:19;4.05;;;1.98;;
73089;SDS011;61269;49.450;8.610;2023-04-15T05:01:47;4.27;;;1.80;;
73089;SDS011;61269;49.450;8.610;2023-04-15T05:04:16;5.38;;;2.13;;
73089;SDS011;61269;49.450;8.610;2023-04-15T05:06:45;3.83;;;2.10;;
73089;SDS011;61269;49.450;8.610;2023-04-15T05:09:13;4.82;;;2.30;;
73089;SDS011;61269;49.450;8.610;2023-04-15T05:11:41;6.38;;;1.73;;
73089;SDS011;61269;49.450;8.610;2023-04-15T05:14:09;5.97;;;2.13;;
73089;SDS011;61269;49.450;8.610;2023-04-15T05:16:38;4.13;;;2.25;;
73089;SDS011;61269;49.450;8.610;2023-04-15T05:19:06;4.00;;;1.88;;
73089;SDS011;61269;49.450;8.610;2023-04-15T05:21:35;4.53;;;2.42;;
73089;SDS011;61269;49.450;8.610;2023-04-15T05:24:05;4.97;;;1.80;;
73089;SDS011;61269;49.450;8.610;2023-04-15T05:26:33;3.90;;;1.93;;
73089;SDS011;61269;49.450;8.610;2023-04-15T05:29:01;4.88;;;2.45;;
73089;SDS011;61269;49.450;8.610;2023-04-15T05:31:30;6.72;;;2.47;;
73089;SDS011;61269;49.450;8.610;2023-04-15T05:33:58;4.55;;;1.92;;
73089;SDS011;61269;49.450;8.610;2023-04-15T05:36:27;4.65;;;1.90;;
73089;SDS011;61269;49.450;8.610;2023-04-15T05:38:56;4.03;;;2.03;;
73089;SDS011;61269;49.450;8.610;2023-04-15T05:41:25;4.90;;;2.08;;
73089;SDS011;61269;49.450;8.610;2023-04-15T05:43:53;4.68;;;2.22;;
73089;SDS011;61269;49.450;8.610;2023-04-15T05:46:22;3.60;;;1.77;;
73089;SDS011;61269;49.450;8.610;2023-04-15T05:48:50;4.63;;;2.40;;
73089;SDS011;61269;49.450;8.610;2023-04-15T05:51:20;5.77;;;2.60;;
73089;SDS011;61269;49.450;8.610;2023-04-15T05:53:48;4.10;;;1.90;;
73089;SDS011;61269;49.450;8.610;2023-04-15T05:56:18;4.70;;;2.40;;
73089;SDS011;61269;49.450;8.610;2023-04-15T05:58:46;6.50;;;2.38;;
73089;SDS011;61269;49.450;8.610;2023-04-15T06:01:16;4.00;;;2.10;;
73089;SDS011;61269;49.450;8.610;2023-04-15T06:03:44;5.93;;;2.40;;
73089;SDS011;61269;49.450;8.610;2023-04-15T06:06:13;5.60;;;2.20;;
73089;SDS011;61269;49.450;8.610;2023-04-15T06:08:42;4.80;;;2.40;;
73089;SDS011;61269;49.450;8.610;2023-04-15T06:11:10;3.75;;;1.92;;
73089;SDS011;61269;49.450;8.610;2023-04-15T06:13:39;3.83;;;1.83;;
73089;SDS011;61269;49.450;8.610;2023-04-15T06:16:07;2.90;;;1.73;;
73089;SDS011;61269;49.450;8.610;2023-04-15T06:18:35;4.75;;;2.53;;
73089;SDS011;61269;49.450;8.610;2023-04-15T06:21:04;4.20;;;2.05;;
73089;SDS011;61269;49.450;8.610;2023-04-15T06:23:33;4.15;;;1.90;;
73089;SDS011;61269;49.450;8.610;2023-04-15T06:26:02;3.60;;;1.50;;
73089;SDS011;61269;49.450;8.610;2023-04-15T06:28:30;4.83;;;2.20;;
73089;SDS011;61269;49.450;8.610;2023-04-15T06:31:00;4.20;;;2.20;;
73089;SDS011;61269;49.450;8.610;2023-04-15T06:33:28;4.75;;;2.15;;
73089;SDS011;61269;49.450;8.610;2023-04-15T06:35:56;3.65;;;1.88;;
73089;SDS011;61269;49.450;8.610;2023-04-15T06:38:24;5.38;;;2.33;;
73089;SDS011;61269;49.450;8.610;2023-04-15T06:40:52;4.63;;;1.93;;
73089;SDS011;61269;49.450;8.610;2023-04-15T06:43:20;3.65;;;2.00;;
73089;SDS011;61269;49.450;8.610;2023-04-15T06:45:48;4.60;;;2.28;;
73089;SDS011;61269;49.450;8.610;2023-04-15T06:48:18;5.00;;;2.08;;
73089;SDS011;61269;49.450;8.610;2023-04-15T06:50:46;4.18;;;1.95;;
73089;SDS011;61269;49.450;8.610;2023-04-15T06:53:15;4.30;;;2.00;;
73089;SDS011;61269;49.450;8.610;2023-04-15T06:55:43;7.40;;;2.92;;
73089;SDS011;61269;49.450;8.610;2023-04-15T06:58:11;4.07;;;2.20;;
73089;SDS011;61269;49.450;8.610;2023-04-15T07:00:40;4.85;;;2.30;;
73089;SDS011;61269;49.450;8.610;2023-04-15T07:03:08;4.85;;;2.13;;
73089;SDS011;61269;49.450;8.610;2023-04-15T07:05:40;5.57;;;2.40;;
73089;SDS011;61269;49.450;8.610;2023-04-15T07:08:08;4.60;;;2.10;;
73089;SDS011;61269;49.450;8.610;2023-04-15T07:10:36;3.65;;;1.80;;
73089;SDS011;61269;49.450;8.610;2023-04-15T07:13:04;4.93;;;2.20;;
73089;SDS011;61269;49.450;8.610;2023-04-15T07:15:34;3.92;;;1.98;;
73089;SDS011;61269;49.450;8.610;2023-04-15T07:18:02;5.10;;;2.20;;
73089;SDS011;61269;49.450;8.610;2023-04-15T07:20:30;3.13;;;1.77;;
73089;SDS011;61269;49.450;8.610;2023-04-15T07:23:00;4.22;;;1.92;;
73089;SDS011;61269;49.450;8.610;2023-04-15T07:25:28;4.07;;;1.80;;
73089;SDS011;61269;49.450;8.610;2023-04-15T07:27:56;5.47;;;2.20;;
73089;SDS011;61269;49.450;8.610;2023-04-15T07:30:24;4.10;;;1.67;;
73089;SDS011;61269;49.450;8.610;2023-04-15T07:32:52;4.20;;;1.73;;
73089;SDS011;61269;49.450;8.610;2023-04-15T07:35:21;8.00;;;3.05;;
73089;SDS011;61269;49.450;8.610;2023-04-15T07:37:49;4.55;;;2.00;;
73089;SDS011;61269;49.450;8.610;2023-04-15T07:40:19;6.90;;;2.00;;
73089;SDS011;61269;49.450;8.610;2023-04-15T07:42:48;5.03;;;2.00;;
73089;SDS011;61269;49.450;8.610;2023-04-15T07:45:16;5.68;;;2.45;;
73089;SDS011;61269;49.450;8.610;2023-04-15T07:47:44;5.93;;;2.38;;
73089;SDS011;61269;49.450;8.610;2023-04-15T07:50:12;5.03;;;2.28;;
73089;SDS011;61269;49.450;8.610;2023-04-15T07:52:41;4.82;;;2.30;;
73089;SDS011;61269;49.450;8.610;2023-04-15T07:55:10;5.07;;;2.43;;
73089;SDS011;61269;49.450;8.610;2023-04-15T07:57:39;4.80;;;2.30;;
73089;SDS011;61269;49.450;8.610;2023-04-15T08:00:08;7.20;;;2.83;;
73089;SDS011;61269;49.450;8.610;2023-04-15T08:02:39;4.88;;;2.47;;
73089;SDS011;61269;49.450;8.610;2023-04-15T08:05:09;6.60;;;2.90;;
73089;SDS011;61269;49.450;8.610;2023-04-15T08:07:38;5.47;;;3.00;;
73089;SDS011;61269;49.450;8.610;2023-04-15T08:10:06;5.13;;;2.33;;
73089;SDS011;61269;49.450;8.610;2023-04-15T08:12:35;5.60;;;2.65;;
73089;SDS011;61269;49.450;8.610;2023-04-15T08:15:05;7.00;;;2.60;;
73089;SDS011;61269;49.450;8.610;2023-04-15T08:17:34;6.20;;;2.30;;
73089;SDS011;61269;49.450;8.610;2023-04-15T08:20:03;6.77;;;2.13;;
73089;SDS011;61269;49.450;8.610;2023-04-15T08:22:32;4.32;;;1.85;;
73089;SDS011;61269;49.450;8.610;2023-04-15T08:25:01;5.10;;;2.20;;
73089;SDS011;61269;49.450;8.610;2023-04-15T08:27:29;4.53;;;2.17;;
73089;SDS011;61269;49.450;8.610;2023-04-15T08:29:57;5.10;;;2.00;;
73089;SDS011;61269;49.450;8.610;2023-04-15T08:32:30;6.73;;;2.30;;
73089;SDS011;61269;49.450;8.610;2023-04-15T08:34:58;6.45;;;2.53;;
73089;SDS011;61269;49.450;8.610;2023-04-15T08:37:27;4.75;;;2.20;;
73089;SDS011;61269;49.450;8.610;2023-04-15T08:39:55;5.55;;;2.35;;
73089;SDS011;61269;49.450;8.610;2023-04-15T08:42:26;5.95;;;2.47;;
73089;SDS011;61269;49.450;8.610;2023-04-15T08:44:58;4.20;;;1.93;;
73089;SDS011;61269;49.450;8.610;2023-04-15T08:47:28;5.53;;;2.00;;
73089;SDS011;61269;49.450;8.610;2023-04-15T08:49:59;4.20;;;2.03;;
73089;SDS011;61269;49.450;8.610;2023-04-15T08:52:30;4.43;;;2.00;;
73089;SDS011;61269;49.450;8.610;2023-04-15T08:54:59;4.45;;;2.35;;
73089;SDS011;61269;49.450;8.610;2023-04-15T08:57:27;4.60;;;1.50;;
73089;SDS011;61269;49.450;8.610;2023-04-15T08:59:56;4.07;;;2.00;;
73089;SDS011;61269;49.450;8.610;2023-04-15T09:02:24;3.63;;;1.90;;
73089;SDS011;61269;49.450;8.610;2023-04-15T09:04:54;4.72;;;1.77;;
73089;SDS011;61269;49.450;8.610;2023-04-15T09:07:23;4.72;;;2.15;;
73089;SDS011;61269;49.450;8.610;2023-04-15T09:09:52;4.10;;;1.80;;
73089;SDS011;61269;49.450;8.610;2023-04-15T09:12:19;3.47;;;1.83;;
73089;SDS011;61269;49.450;8.610;2023-04-15T09:14:48;5.45;;;2.03;;
73089;SDS011;61269;49.450;8.610;2023-04-15T09:17:17;6.65;;;2.15;;
73089;SDS011;61269;49.450;8.610;2023-04-15T09:19:46;3.03;;;1.35;;
73089;SDS011;61269;49.450;8.610;2023-04-15T09:22:14;5.33;;;1.70;;
73089;SDS011;61269;49.450;8.610;2023-04-15T09:24:44;5.05;;;1.40;;
73089;SDS011;61269;49.450;8.610;2023-04-15T09:27:14;6.00;;;1.67;;
73089;SDS011;61269;49.450;8.610;2023-04-15T09:29:43;4.00;;;1.63;;
73089;SDS011;61269;49.450;8.610;2023-04-15T09:32:11;3.80;;;1.73;;
73089;SDS011;61269;49.450;8.610;2023-04-15T09:34:41;3.67;;;1.53;;
73089;SDS011;61269;49.450;8.610;2023-04-15T09:37:09;4.10;;;1.30;;
73089;SDS011;61269;49.450;8.610;2023-04-15T09:39:58;3.85;;;1.58;;
73089;SDS011;61269;49.450;8.610;2023-04-15T09:42:26;3.42;;;1.35;;
73089;SDS011;61269;49.450;8.610;2023-04-15T09:44:55;3.13;;;1.60;;
73089;SDS011;61269;49.450;8.610;2023-04-15T09:47:26;5.00;;;1.67;;
73089;SDS011;61269;49.450;8.610;2023-04-15T09:49:55;6.47;;;1.60;;
73089;SDS011;61269;49.450;8.610;2023-04-15T09:52:24;3.22;;;1.33;;
73089;SDS011;61269;49.450;8.610;2023-04-15T09:54:53;5.10;;;1.83;;
73089;SDS011;61269;49.450;8.610;2023-04-15T09:57:24;3.50;;;1.45;;
73089;SDS011;61269;49.450;8.610;2023-04-15T09:59:52;4.53;;;1.40;;
73089;SDS011;61269;49.450;8.610;2023-04-15T10:02:20;4.20;;;1.92;;
73089;SDS011;61269;49.450;8.610;2023-04-15T10:04:49;5.03;;;1.98;;
73089;SDS011;61269;49.450;8.610;2023-04-15T10:07:19;3.90;;;1.88;;
73089;SDS011;61269;49.450;8.610;2023-04-15T10:09:48;4.32;;;1.98;;
73089;SDS011;61269;49.450;8.610;2023-04-15T10:12:16;4.37;;;1.67;;
73089;SDS011;61269;49.450;8.610;2023-04-15T10:14:47;5.78;;;2.25;;
73089;SDS011;61269;49.450;8.610;2023-04-15T10:17:20;7.90;;;1.92;;
73089;SDS011;61269;49.450;8.610;2023-04-15T10:19:50;5.00;;;2.20;;
73089;SDS011;61269;49.450;8.610;2023-04-15T10:22:21;7.75;;;2.33;;
73089;SDS011;61269;49.450;8.610;2023-04-15T10:24:49;5.30;;;1.67;;
73089;SDS011;61269;49.450;8.610;2023-04-15T10:27:18;4.82;;;1.95;;
73089;SDS011;61269;49.450;8.610;2023-04-15T10:29:49;4.25;;;2.00;;
73089;SDS011;61269;49.450;8.610;2023-04-15T10:32:18;4.45;;;1.85;;
73089;SDS011;61269;49.450;8.610;2023-04-15T10:34:53;5.18;;;1.70;;
73089;SDS011;61269;49.450;8.610;2023-04-15T10:37:21;3.83;;;1.50;;
73089;SDS011;61269;49.450;8.610;2023-04-15T10:39:59;4.30;;;1.70;;
73089;SDS011;61269;49.450;8.610;2023-04-15T10:42:32;4.30;;;1.58;;
73089;SDS011;61269;49.450;8.610;2023-04-15T10:45:03;4.97;;;1.30;;
73089;SDS011;61269;49.450;8.610;2023-04-15T10:47:43;6.25;;;1.50;;
73089;SDS011;61269;49.450;8.610;2023-04-15T10:50:11;3.30;;;1.23;;
73089;SDS011;61269;49.450;8.610;2023-04-15T10:52:39;2.85;;;1.20;;
73089;SDS011;61269;49.450;8.610;2023-04-15T10:55:12;3.97;;;1.20;;
73089;SDS011;61269;49.450;8.610;2023-04-15T10:57:41;3.00;;;1.25;;
73089;SDS011;61269;49.450;8.610;2023-04-15T11:00:13;4.25;;;1.23;;
73089;SDS011;61269;49.450;8.610;2023-04-15T11:02:43;3.87;;;1.10;;
73089;SDS011;61269;49.450;8.610;2023-04-15T11:05:13;3.38;;;1.00;;
73089;SDS011;61269;49.450;8.610;2023-04-15T11:07:46;2.42;;;1.00;;
73089;SDS011;61269;49.450;8.610;2023-04-15T11:13:19;1.85;;;0.90;;
73089;SDS011;61269;49.450;8.610;2023-04-15T11:15:53;1.40;;;0.70;;
73089;SDS011;61269;49.450;8.610;2023-04-15T11:18:24;2.10;;;0.80;;
73089;SDS011;61269;49.450;8.610;2023-04-15T11:20:54;4.28;;;1.15;;
73089;SDS011;61269;49.450;8.610;2023-04-15T11:23:28;2.22;;;0.77;;
73089;SDS011;61269;49.450;8.610;2023-04-15T11:25:58;1.92;;;0.80;;
73089;SDS011;61269;49.450;8.610;2023-04-15T11:28:27;1.57;;;0.67;;
73089;SDS011;61269;49.450;8.610;2023-04-15T11:31:02;3.13;;;0.82;;
73089;SDS011;61269;49.450;8.610;2023-04-15T11:33:33;1.95;;;0.80;;
73089;SDS011;61269;49.450;8.610;2023-04-15T11:36:01;2.92;;;0.65;;
73089;SDS011;61269;49.450;8.610;2023-04-15T11:38:30;2.42;;;0.85;;
73089;SDS011;61269;49.450;8.610;2023-04-15T11:41:00;2.20;;;0.67;;
73089;SDS011;61269;49.450;8.610;2023-04-15T11:43:30;2.30;;;0.60;;
73089;SDS011;61269;49.450;8.610;2023-04-15T11:46:02;2.75;;;0.80;;
73089;SDS011;61269;49.450;8.610;2023-04-15T11:48:31;1.88;;;0.68;;
73089;SDS011;61269;49.450;8.610;2023-04-15T11:51:01;2.67;;;0.70;;
73089;SDS011;61269;49.450;8.610;2023-04-15T11:53:36;2.33;;;0.70;;
73089;SDS011;61269;49.450;8.610;2023-04-15T11:56:07;3.10;;;0.90;;
73089;SDS011;61269;49.450;8.610;2023-04-15T11:58:35;2.92;;;1.13;;
73089;SDS011;61269;49.450;8.610;2023-04-15T12:01:06;2.30;;;0.75;;
73089;SDS011;61269;49.450;8.610;2023-04-15T12:03:37;2.13;;;0.68;;
73089;SDS011;61269;49.450;8.610;2023-04-15T12:06:08;1.77;;;0.80;;
73089;SDS011;61269;49.450;8.610;2023-04-15T12:11:32;2.83;;;0.82;;
73089;SDS011;61269;49.450;8.610;2023-04-15T12:14:03;2.70;;;0.88;;
73089;SDS011;61269;49.450;8.610;2023-04-15T12:16:35;2.63;;;0.68;;
73089;SDS011;61269;49.450;8.610;2023-04-15T12:19:16;3.57;;;0.93;;
73089;SDS011;61269;49.450;8.610;2023-04-15T12:21:46;3.92;;;0.98;;
73089;SDS011;61269;49.450;8.610;2023-04-15T12:24:18;4.65;;;0.90;;
73089;SDS011;61269;49.450;8.610;2023-04-15T12:26:48;2.58;;;1.00;;
73089;SDS011;61269;49.450;8.610;2023-04-15T12:29:17;2.13;;;0.95;;
73089;SDS011;61269;49.450;8.610;2023-04-15T12:31:48;4.43;;;0.90;;
73089;SDS011;61269;49.450;8.610;2023-04-15T12:34:18;2.42;;;0.82;;
73089;SDS011;61269;49.450;8.610;2023-04-15T12:36:53;3.60;;;1.20;;
73089;SDS011;61269;49.450;8.610;2023-04-15T12:39:22;1.63;;;0.73;;
73089;SDS011;61269;49.450;8.610;2023-04-15T12:41:50;2.00;;;0.82;;
73089;SDS011;61269;49.450;8.610;2023-04-15T12:44:21;1.87;;;0.67;;
73089;SDS011;61269;49.450;8.610;2023-04-15T12:46:51;2.22;;;0.98;;
73089;SDS011;61269;49.450;8.610;2023-04-15T12:49:20;2.30;;;1.17;;
73089;SDS011;61269;49.450;8.610;2023-04-15T12:51:49;1.85;;;0.82;;
73089;SDS011;61269;49.450;8.610;2023-04-15T12:54:17;4.00;;;1.17;;
73089;SDS011;61269;49.450;8.610;2023-04-15T12:56:46;1.60;;;0.60;;
73089;SDS011;61269;49.450;8.610;2023-04-15T12:59:15;3.05;;;1.20;;
73089;SDS011;61269;49.450;8.610;2023-04-15T13:01:44;1.80;;;0.85;;
73089;SDS011;61269;49.450;8.610;2023-04-15T13:04:14;2.40;;;0.90;;
73089;SDS011;61269;49.450;8.610;2023-04-15T13:06:43;3.53;;;0.80;;
73089;SDS011;61269;49.450;8.610;2023-04-15T13:09:11;3.30;;;0.60;;
73089;SDS011;61269;49.450;8.610;2023-04-15T13:11:40;1.77;;;0.50;;
73089;SDS011;61269;49.450;8.610;2023-04-15T13:14:08;1.38;;;0.43;;
73089;SDS011;61269;49.450;8.610;2023-04-15T13:16:38;1.33;;;0.50;;
73089;SDS011;61269;49.450;8.610;2023-04-15T13:19:07;2.28;;;0.70;;
73089;SDS011;61269;49.450;8.610;2023-04-15T13:21:36;1.97;;;0.70;;
73089;SDS011;61269;49.450;8.610;2023-04-15T13:24:05;2.20;;;0.80;;
73089;SDS011;61269;49.450;8.610;2023-04-15T13:26:34;2.00;;;0.80;;
73089;SDS011;61269;49.450;8.610;2023-04-15T13:29:03;1.77;;;0.70;;
73089;SDS011;61269;49.450;8.610;2023-04-15T13:31:32;4.65;;;0.90;;
73089;SDS011;61269;49.450;8.610;2023-04-15T13:34:00;3.33;;;0.93;;
73089;SDS011;61269;49.450;8.610;2023-04-15T13:36:29;2.08;;;0.80;;
73089;SDS011;61269;49.450;8.610;2023-04-15T13:38:59;2.20;;;0.80;;
73089;SDS011;61269;49.450;8.610;2023-04-15T13:41:27;2.47;;;0.88;;
73089;SDS011;61269;49.450;8.610;2023-04-15T13:43:55;1.70;;;0.77;;
73089;SDS011;61269;49.450;8.610;2023-04-15T13:46:24;2.90;;;0.80;;
73089;SDS011;61269;49.450;8.610;2023-04-15T13:48:52;1.48;;;0.50;;
73089;SDS011;61269;49.450;8.610;2023-04-15T13:51:20;1.42;;;0.63;;
73089;SDS011;61269;49.450;8.610;2023-04-15T13:53:48;1.83;;;0.70;;
73089;SDS011;61269;49.450;8.610;2023-04-15T13:56:18;1.23;;;0.60;;
73089;SDS011;61269;49.450;8.610;2023-04-15T13:58:47;2.13;;;0.50;;
73089;SDS011;61269;49.450;8.610;2023-04-15T14:01:15;1.25;;;0.60;;
73089;SDS011;61269;49.450;8.610;2023-04-15T14:03:43;2.28;;;0.88;;
73089;SDS011;61269;49.450;8.610;2023-04-15T14:06:12;1.13;;;0.50;;
73089;SDS011;61269;49.450;8.610;2023-04-15T14:08:40;1.45;;;0.75;;
73089;SDS011;61269;49.450;8.610;2023-04-15T14:11:08;1.40;;;0.50;;
73089;SDS011;61269;49.450;8.610;2023-04-15T14:13:38;0.98;;;0.57;;
73089;SDS011;61269;49.450;8.610;2023-04-15T14:16:06;2.25;;;0.88;;
73089;SDS011;61269;49.450;8.610;2023-04-15T14:18:35;1.00;;;0.60;;
73089;SDS011;61269;49.450;8.610;2023-04-15T14:21:04;3.17;;;1.00;;
73089;SDS011;61269;49.450;8.610;2023-04-15T14:23:33;3.03;;;0.90;;
73089;SDS011;61269;49.450;8.610;2023-04-15T14:26:01;1.55;;;0.70;;
73089;SDS011;61269;49.450;8.610;2023-04-15T14:28:29;2.03;;;0.70;;
73089;SDS011;61269;49.450;8.610;2023-04-15T14:30:59;1.95;;;0.90;;
73089;SDS011;61269;49.450;8.610;2023-04-15T14:33:28;1.20;;;0.63;;
73089;SDS011;61269;49.450;8.610;2023-04-15T14:35:56;1.70;;;0.90;;
73089;SDS011;61269;49.450;8.610;2023-04-15T14:38:24;2.17;;;1.02;;
73089;SDS011;61269;49.450;8.610;2023-04-15T14:40:52;1.83;;;0.90;;
73089;SDS011;61269;49.450;8.610;2023-04-15T14:43:20;2.00;;;0.80;;
73089;SDS011;61269;49.450;8.610;2023-04-15T14:45:48;2.30;;;1.10;;
73089;SDS011;61269;49.450;8.610;2023-04-15T14:48:19;1.67;;;0.57;;
73089;SDS011;61269;49.450;8.610;2023-04-15T14:50:47;2.17;;;0.85;;
73089;SDS011;61269;49.450;8.610;2023-04-15T14:53:15;2.00;;;1.02;;
73089;SDS011;61269;49.450;8.610;2023-04-15T14:55:43;2.15;;;1.00;;
73089;SDS011;61269;49.450;8.610;2023-04-15T14:58:11;2.40;;;1.10;;
73089;SDS011;61269;49.450;8.610;2023-04-15T15:00:39;2.70;;;0.90;;
73089;SDS011;61269;49.450;8.610;2023-04-15T15:03:10;1.77;;;0.88;;
73089;SDS011;61269;49.450;8.610;2023-04-15T15:05:40;2.15;;;0.90;;